createdAt,value
2019-05-25T00:00:53.151Z,46.48
2019-05-25T00:03:22.340Z,46.83
2019-05-25T00:05:51.924Z,47.03
2019-05-25T00:08:40.247Z,47.18
2019-05-25T00:11:09.488Z,47.18
2019-05-25T00:13:58.156Z,47.04
2019-05-25T00:16:27.405Z,47.04
2019-05-25T00:18:56.589Z,47.45
2019-05-25T00:21:45.275Z,47.59
2019-05-25T00:24:14.467Z,47.59
2019-05-25T00:26:43.712Z,48.23
2019-05-25T00:29:13.254Z,48.42
2019-05-25T00:31:42.494Z,48.60
2019-05-25T00:34:11.986Z,48.39
2019-05-25T00:36:43.467Z,48.51
2019-05-25T00:39:12.724Z,48.52
2019-05-25T00:41:41.965Z,48.54
2019-05-25T00:44:11.539Z,48.56
2019-05-25T00:46:40.776Z,48.67
2019-05-25T00:49:10.034Z,48.76
2019-05-25T00:51:39.284Z,48.91
2019-05-25T00:54:08.474Z,48.96
2019-05-25T00:56:37.745Z,49.18
2019-05-25T00:59:07.232Z,49.23
2019-05-25T01:01:36.735Z,49.24
2019-05-25T01:04:06.345Z,49.37
2019-05-25T01:06:35.541Z,49.38
2019-05-25T01:09:44.229Z,49.30
2019-05-25T01:12:13.773Z,49.27
2019-05-25T01:14:43.017Z,49.41
2019-05-25T01:17:12.210Z,49.58
2019-05-25T01:19:41.490Z,49.70
2019-05-25T01:22:11.034Z,49.66
2019-05-25T01:24:44.338Z,49.48
2019-05-25T01:27:11.216Z,49.38
2019-05-25T01:29:40.456Z,49.46
2019-05-25T01:32:09.661Z,49.81
2019-05-25T01:34:38.912Z,49.87
2019-05-25T01:37:08.102Z,50.04
2019-05-25T01:39:37.717Z,50.17
2019-05-25T01:42:06.919Z,50.62
2019-05-25T01:44:36.155Z,50.99
2019-05-25T01:47:05.713Z,51.45
2019-05-25T01:49:34.962Z,51.49
2019-05-25T01:52:04.516Z,51.41
2019-05-25T01:54:34.123Z,51.15
2019-05-25T01:57:03.328Z,51.12
2019-05-25T01:59:32.575Z,51.25
2019-05-25T02:02:01.771Z,51.60
2019-05-25T02:04:31.323Z,51.72
2019-05-25T02:07:00.833Z,51.79
2019-05-25T02:09:30.081Z,51.94
2019-05-25T02:11:59.321Z,52.03
2019-05-25T02:14:28.519Z,52.29
2019-05-25T02:16:58.151Z,52.10
2019-05-25T02:19:27.639Z,52.20
2019-05-25T02:21:57.547Z,52.04
2019-05-25T02:24:26.743Z,51.93
2019-05-25T02:26:55.989Z,51.46
2019-05-25T02:29:25.177Z,51.64
2019-05-25T02:31:54.430Z,51.75
2019-05-25T02:34:23.951Z,51.62
2019-05-25T02:36:53.246Z,51.77
2019-05-25T02:39:22.385Z,51.90
2019-05-25T02:41:51.622Z,52.32
2019-05-25T02:44:20.807Z,52.64
2019-05-25T02:46:50.345Z,53.08
2019-05-25T02:49:19.863Z,53.30
2019-05-25T02:51:49.201Z,53.59
2019-05-25T02:54:18.755Z,53.70
2019-05-25T02:56:48.001Z,54.14
2019-05-25T02:59:17.189Z,54.43
2019-05-25T03:01:46.379Z,54.53
2019-05-25T03:04:15.955Z,54.59
2019-05-25T03:10:19.796Z,55.12
2019-05-25T03:12:49.598Z,55.04
2019-05-25T03:15:18.784Z,55.33
2019-05-25T03:17:48.742Z,55.01
2019-05-25T03:26:03.297Z,54.72
2019-05-25T03:28:32.912Z,54.69
2019-05-25T03:31:02.147Z,54.62
2019-05-25T03:33:31.378Z,54.87
2019-05-25T03:36:00.570Z,54.94
2019-05-25T03:38:29.804Z,54.78
2019-05-25T03:40:59.314Z,55.12
2019-05-25T03:43:28.952Z,54.82
2019-05-25T03:45:58.507Z,54.79
2019-05-25T03:48:27.735Z,54.80
2019-05-25T03:50:57.405Z,55.51
2019-05-25T03:53:27.156Z,55.58
2019-05-25T03:56:05.367Z,55.83
2019-05-25T03:58:27.993Z,55.79
2019-05-25T04:00:57.240Z,55.51
2019-05-25T04:03:26.461Z,55.39
2019-05-25T04:05:55.692Z,55.65
2019-05-25T04:08:24.895Z,55.45
2019-05-25T04:10:54.728Z,55.24
2019-05-25T04:13:23.917Z,55.02
2019-05-25T04:15:53.157Z,54.63
2019-05-25T04:18:22.347Z,54.24
2019-05-25T04:20:51.931Z,53.92
2019-05-25T04:23:21.126Z,53.94
2019-05-25T04:25:50.632Z,53.98
2019-05-25T04:30:54.910Z,54.52
2019-05-25T04:33:24.161Z,54.56
2019-05-25T04:35:53.370Z,54.64
2019-05-25T04:38:22.616Z,54.95
2019-05-25T04:40:51.811Z,54.75
2019-05-25T04:43:21.050Z,54.57
2019-05-25T04:45:50.233Z,53.99
2019-05-25T04:48:19.483Z,53.67
2019-05-25T04:50:48.682Z,53.56
2019-05-25T04:53:17.924Z,53.30
2019-05-25T04:55:47.485Z,52.98
2019-05-25T04:58:17.060Z,52.44
2019-05-25T05:00:46.684Z,52.50
2019-05-25T05:03:16.302Z,52.45
2019-05-25T05:05:45.852Z,52.38
2019-05-25T05:08:15.101Z,52.20
2019-05-25T05:10:44.965Z,52.00
2019-05-25T05:13:14.214Z,51.59
2019-05-25T05:15:43.755Z,51.63
2019-05-25T05:18:13.027Z,51.63
2019-05-25T05:20:42.575Z,51.70
2019-05-25T05:23:11.812Z,51.35
2019-05-25T05:25:41.782Z,51.33
2019-05-25T05:28:11.607Z,51.04
2019-05-25T05:30:40.815Z,50.73
2019-05-25T05:33:10.512Z,50.32
2019-05-25T05:36:19.374Z,50.07
2019-05-25T05:38:49.355Z,49.67
2019-05-25T05:45:06.531Z,48.81
2019-05-25T05:48:15.205Z,48.63
2019-05-25T05:51:23.792Z,48.37
2019-05-25T05:54:33.941Z,47.96
2019-05-25T05:57:22.266Z,47.37
2019-05-25T05:59:51.467Z,47.06
2019-05-25T06:02:20.657Z,46.76
2019-05-25T06:05:09.088Z,46.65
2019-05-25T06:07:38.349Z,46.65
2019-05-25T06:10:47.070Z,46.28
2019-05-25T06:13:16.306Z,45.78
2019-05-25T06:16:04.676Z,45.50
2019-05-25T06:18:34.259Z,45.50
2019-05-25T06:21:03.451Z,46.06
2019-05-25T06:23:32.988Z,45.70
2019-05-25T06:26:02.515Z,45.30
2019-05-25T06:28:32.074Z,44.89
2019-05-25T06:31:01.261Z,44.33
2019-05-25T06:36:04.981Z,44.61
2019-05-25T06:38:34.545Z,44.61
2019-05-25T06:41:03.732Z,44.13
2019-05-25T06:43:32.978Z,43.74
2019-05-25T06:46:02.172Z,43.73
2019-05-25T06:51:05.921Z,43.55
2019-05-25T06:53:35.423Z,43.79
2019-05-25T06:56:05.023Z,43.78
2019-05-25T06:58:34.253Z,42.90
2019-05-25T07:01:03.716Z,43.23
2019-05-25T07:03:32.904Z,43.39
2019-05-25T07:06:02.150Z,43.17
2019-05-25T07:08:31.330Z,43.22
2019-05-25T07:11:00.925Z,43.11
2019-05-25T07:13:30.109Z,43.53
2019-05-25T07:15:59.339Z,43.73
2019-05-25T07:18:28.824Z,43.63
2019-05-25T07:20:58.067Z,43.02
2019-05-25T07:23:27.245Z,42.86
2019-05-25T07:25:56.827Z,43.02
2019-05-25T07:28:26.380Z,43.09
2019-05-25T07:30:55.615Z,43.68
2019-05-25T07:33:24.800Z,43.19
2019-05-25T07:35:54.332Z,42.27
2019-05-25T07:38:23.515Z,41.81
2019-05-25T07:40:53.071Z,41.61
2019-05-25T07:43:22.262Z,41.02
2019-05-25T07:45:51.493Z,40.63
2019-05-25T07:48:20.681Z,40.39
2019-05-25T07:50:49.911Z,40.08
2019-05-25T07:53:19.095Z,39.23
2019-05-25T07:55:48.340Z,39.87
2019-05-25T07:58:18.633Z,41.04
2019-05-25T08:00:48.495Z,41.64
2019-05-25T08:03:17.680Z,41.85
2019-05-25T08:05:46.868Z,41.48
2019-05-25T08:08:16.103Z,41.09
2019-05-25T08:10:45.335Z,40.54
2019-05-25T08:13:14.575Z,40.41
2019-05-25T08:15:44.261Z,40.61
2019-05-25T08:18:13.506Z,40.10
2019-05-25T08:21:01.686Z,39.18
2019-05-25T08:23:30.963Z,39.27
2019-05-25T08:26:00.148Z,39.91
2019-05-25T08:31:04.028Z,38.40
2019-05-25T08:33:33.264Z,39.36
2019-05-25T08:36:02.448Z,38.76
2019-05-25T08:38:32.247Z,37.26
2019-05-25T08:41:02.176Z,36.16
2019-05-25T08:43:32.468Z,36.73
2019-05-25T08:46:02.081Z,36.81
2019-05-25T08:48:31.442Z,36.53
2019-05-25T08:51:00.639Z,35.67
2019-05-25T08:53:40.761Z,36.30
2019-05-25T08:56:00.847Z,36.03
2019-05-25T08:58:30.003Z,35.28
2019-05-25T09:00:59.622Z,34.82
2019-05-25T09:03:29.203Z,34.42
2019-05-25T09:05:58.727Z,34.19
2019-05-25T09:08:28.438Z,33.36
2019-05-25T09:10:57.895Z,33.48
2019-05-25T09:13:27.080Z,32.85
2019-05-25T09:15:56.318Z,33.35
2019-05-25T09:18:26.320Z,33.88
2019-05-25T09:20:56.266Z,33.76
2019-05-25T09:23:25.823Z,33.88
2019-05-25T09:28:36.799Z,34.25
2019-05-25T09:31:25.027Z,34.10
2019-05-25T09:33:54.260Z,33.68
2019-05-25T09:36:23.661Z,33.97
2019-05-25T09:38:53.661Z,34.00
2019-05-25T09:41:23.233Z,33.66
2019-05-25T09:43:52.907Z,33.55
2019-05-25T09:46:22.094Z,33.85
2019-05-25T09:48:51.644Z,33.37
2019-05-25T09:51:20.831Z,33.81
2019-05-25T09:53:50.075Z,33.79
2019-05-25T09:56:19.543Z,33.58
2019-05-25T09:58:48.841Z,33.55
2019-05-25T10:01:17.992Z,33.88
2019-05-25T10:03:47.960Z,33.79
2019-05-25T10:06:17.143Z,33.70
2019-05-25T10:08:46.504Z,34.52
2019-05-25T10:11:16.198Z,35.08
2019-05-25T10:13:46.169Z,34.44
2019-05-25T10:16:15.682Z,34.24
2019-05-25T10:18:44.920Z,34.31
2019-05-25T10:21:15.081Z,34.09
2019-05-25T10:23:45.208Z,33.89
2019-05-25T10:26:14.933Z,33.91
2019-05-25T10:28:44.194Z,34.35
2019-05-25T10:31:13.646Z,34.58
2019-05-25T10:34:01.962Z,34.50
2019-05-25T10:36:31.155Z,33.86
2019-05-25T10:39:00.689Z,34.44
2019-05-25T10:41:30.218Z,34.33
2019-05-25T10:43:59.766Z,33.40
2019-05-25T10:46:29.068Z,33.95
2019-05-25T10:48:58.337Z,33.96
2019-05-25T10:51:27.568Z,34.17
2019-05-25T10:53:56.762Z,33.84
2019-05-25T10:56:26.402Z,33.25
2019-05-25T10:58:55.690Z,33.53
2019-05-25T11:01:24.929Z,33.54
2019-05-25T11:03:54.106Z,34.79
2019-05-25T11:06:23.707Z,34.06
2019-05-25T11:08:53.208Z,33.08
2019-05-25T11:11:22.499Z,32.54
2019-05-25T11:13:52.014Z,32.94
2019-05-25T11:16:21.217Z,32.80
2019-05-25T11:18:50.439Z,32.08
2019-05-25T11:24:07.852Z,31.93
2019-05-25T11:26:37.028Z,31.98
2019-05-25T11:29:06.549Z,32.04
2019-05-25T11:31:59.220Z,32.25
2019-05-25T11:34:25.943Z,32.28
2019-05-25T11:36:55.123Z,32.68
2019-05-25T11:39:24.643Z,32.65
2019-05-25T11:41:54.141Z,32.14
2019-05-25T11:44:23.784Z,32.04
2019-05-25T11:46:53.260Z,31.52
2019-05-25T11:49:23.082Z,32.26
2019-05-25T11:51:53.770Z,32.55
2019-05-25T11:54:23.309Z,32.64
2019-05-25T11:56:52.496Z,32.14
2019-05-25T11:59:21.723Z,32.18
2019-05-25T12:02:09.983Z,32.61
2019-05-25T12:04:39.237Z,32.50
2019-05-25T12:07:08.454Z,32.52
2019-05-25T12:09:37.688Z,32.75
2019-05-25T12:12:06.935Z,33.76
2019-05-25T12:14:36.551Z,34.53
2019-05-25T12:17:05.758Z,35.48
2019-05-25T12:19:35.010Z,36.15
2019-05-25T12:22:23.241Z,36.40
2019-05-25T12:24:52.829Z,35.42
2019-05-25T12:27:22.071Z,35.00
2019-05-25T12:29:51.367Z,34.36
2019-05-25T12:32:20.574Z,34.05
2019-05-25T12:34:50.250Z,33.69
2019-05-25T12:37:19.524Z,33.31
2019-05-25T12:39:48.774Z,33.63
2019-05-25T12:42:18.307Z,34.01
2019-05-25T12:44:47.573Z,34.60
2019-05-25T12:47:16.785Z,34.71
2019-05-25T12:49:50.592Z,34.20
2019-05-25T12:52:16.960Z,34.30
2019-05-25T12:54:46.155Z,34.13
2019-05-25T12:57:15.775Z,33.65
2019-05-25T12:59:44.980Z,33.41
2019-05-25T13:02:14.214Z,33.01
2019-05-25T13:04:43.780Z,32.60
2019-05-25T13:07:13.016Z,32.62
2019-05-25T13:09:42.206Z,32.38
2019-05-25T13:12:11.518Z,32.07
2019-05-25T13:14:40.722Z,32.34
2019-05-25T13:17:10.349Z,31.82
2019-05-25T13:19:39.961Z,32.00
2019-05-25T13:22:09.152Z,32.38
2019-05-25T13:24:38.739Z,33.07
2019-05-25T13:27:07.897Z,33.48
2019-05-25T13:29:37.134Z,33.32
2019-05-25T13:32:06.336Z,33.67
2019-05-25T13:34:35.580Z,34.13
2019-05-25T13:37:04.897Z,35.06
2019-05-25T13:39:34.871Z,34.41
2019-05-25T13:42:04.134Z,35.67
2019-05-25T13:44:33.372Z,35.58
2019-05-25T13:47:02.553Z,35.09
2019-05-25T13:49:31.788Z,34.95
2019-05-25T13:52:00.994Z,35.37
2019-05-25T13:54:30.249Z,36.25
2019-05-25T13:56:59.733Z,35.64
2019-05-25T13:59:29.748Z,35.64
2019-05-25T14:01:58.991Z,36.11
2019-05-25T14:04:28.506Z,36.87
2019-05-25T14:06:58.378Z,36.87
2019-05-25T14:09:27.574Z,36.60
2019-05-25T14:11:56.866Z,35.73
2019-05-25T14:14:26.401Z,36.25
2019-05-25T14:16:55.668Z,36.17
2019-05-25T14:19:24.857Z,36.44
2019-05-25T14:21:54.507Z,35.97
2019-05-25T14:24:24.014Z,35.58
2019-05-25T14:26:53.265Z,36.43
2019-05-25T14:29:25.960Z,36.89
2019-05-25T14:31:53.446Z,36.17
2019-05-25T14:34:22.661Z,36.21
2019-05-25T14:36:51.967Z,36.50
2019-05-25T14:39:21.123Z,36.77
2019-05-25T14:41:50.338Z,37.14
2019-05-25T14:44:19.598Z,37.25
2019-05-25T14:46:49.145Z,37.25
2019-05-25T14:49:18.759Z,37.47
2019-05-25T14:51:48.263Z,37.64
2019-05-25T14:54:18.676Z,37.63
2019-05-25T14:56:47.875Z,37.63
2019-05-25T14:59:17.771Z,36.85
2019-05-25T15:02:01.454Z,37.11
2019-05-25T15:04:18.474Z,37.22
2019-05-25T15:06:47.674Z,37.52
2019-05-25T15:09:17.260Z,37.77
2019-05-25T15:11:46.510Z,37.80
2019-05-25T15:14:16.064Z,37.43
2019-05-25T15:16:45.359Z,37.75
2019-05-25T15:19:14.508Z,37.37
2019-05-25T15:21:44.099Z,37.49
2019-05-25T15:24:13.339Z,37.65
2019-05-25T15:26:42.591Z,37.17
2019-05-25T15:29:11.784Z,37.02
2019-05-25T15:31:41.041Z,37.02
2019-05-25T15:34:29.186Z,36.80
2019-05-25T15:36:58.444Z,36.68
2019-05-25T15:39:27.693Z,38.44
2019-05-25T15:41:56.955Z,39.70
2019-05-25T15:44:26.149Z,40.42
2019-05-25T15:46:55.835Z,40.70
2019-05-25T15:49:32.821Z,40.97
2019-05-25T15:51:56.341Z,41.21
2019-05-25T15:54:25.958Z,41.15
2019-05-25T15:56:55.158Z,41.15
2019-05-25T15:59:24.405Z,41.55
2019-05-25T16:01:53.966Z,41.79
2019-05-25T16:04:23.665Z,42.26
2019-05-25T16:06:52.877Z,42.38
2019-05-25T16:09:22.469Z,42.71
2019-05-25T16:11:52.134Z,43.21
2019-05-25T16:14:21.383Z,44.23
2019-05-25T16:16:50.585Z,44.54
2019-05-25T16:19:19.825Z,47.44
2019-05-25T16:21:49.024Z,48.34
2019-05-25T16:24:18.261Z,48.07
2019-05-25T16:29:36.069Z,48.55
2019-05-25T16:32:05.250Z,51.17
2019-05-25T16:34:34.494Z,51.94
2019-05-25T16:37:04.164Z,52.80
2019-05-25T16:39:33.831Z,53.07
2019-05-25T16:42:03.040Z,54.18
2019-05-25T16:44:32.678Z,54.67
2019-05-25T16:47:02.137Z,54.57
2019-05-25T16:49:31.539Z,53.81
2019-05-25T16:52:01.171Z,53.85
2019-05-25T16:54:31.072Z,54.22
2019-05-25T16:57:00.400Z,53.83
2019-05-25T16:59:29.589Z,53.79
2019-05-25T17:01:58.869Z,54.08
2019-05-25T17:04:28.113Z,54.73
2019-05-25T17:06:57.364Z,54.92
2019-05-25T17:09:26.556Z,55.19
2019-05-25T17:11:55.885Z,55.58
2019-05-25T17:14:25.218Z,55.19
2019-05-25T17:16:54.468Z,54.89
2019-05-25T17:19:23.826Z,54.47
2019-05-25T17:21:53.696Z,53.62
2019-05-25T17:24:23.666Z,52.39
2019-05-25T17:26:53.294Z,52.33
2019-05-25T17:29:22.653Z,52.60
2019-05-25T17:31:51.845Z,51.91
2019-05-25T17:34:21.116Z,52.34
2019-05-25T17:36:50.598Z,52.63
2019-05-25T17:39:19.840Z,52.44
2019-05-25T17:41:49.504Z,52.09
2019-05-25T17:44:18.848Z,52.16
2019-05-25T17:46:48.040Z,52.35
2019-05-25T17:49:21.090Z,52.83
2019-05-25T17:51:50.399Z,52.89
2019-05-25T17:54:19.733Z,52.94
2019-05-25T17:56:49.397Z,53.03
2019-05-25T17:59:18.645Z,52.88
2019-05-25T18:01:48.204Z,52.88
2019-05-25T18:04:17.801Z,54.03
2019-05-25T18:06:47.056Z,54.98
2019-05-25T18:09:16.800Z,55.71
2019-05-25T18:11:46.095Z,56.02
2019-05-25T18:14:15.309Z,56.23
2019-05-25T18:17:04.037Z,58.84
2019-05-25T18:19:33.536Z,58.84
2019-05-25T18:22:02.889Z,58.90
2019-05-25T18:24:32.592Z,59.08
2019-05-25T18:27:02.358Z,59.58
2019-05-25T18:29:31.645Z,60.58
2019-05-25T18:34:54.672Z,62.18
2019-05-25T18:37:23.928Z,63.43
2019-05-25T18:39:53.149Z,63.24
2019-05-25T18:42:22.621Z,62.24
2019-05-25T18:44:52.288Z,63.03
2019-05-25T18:47:21.553Z,62.82
2019-05-25T18:49:50.910Z,64.08
2019-05-25T18:52:20.177Z,61.92
2019-05-25T18:54:49.783Z,58.92
2019-05-25T18:57:19.538Z,58.89
2019-05-25T18:59:48.772Z,57.84
2019-05-25T19:02:18.436Z,57.73
2019-05-25T19:04:58.265Z,56.63
2019-05-25T19:07:19.156Z,56.96
2019-05-25T19:09:48.368Z,57.73
2019-05-25T19:12:17.712Z,58.83
2019-05-25T19:14:46.968Z,59.31
2019-05-25T19:17:16.625Z,59.85
2019-05-25T19:19:46.262Z,61.15
2019-05-25T19:22:15.552Z,62.04
2019-05-25T19:24:44.724Z,62.99
2019-05-25T19:27:14.290Z,63.58
2019-05-25T19:29:43.484Z,63.84
2019-05-25T19:32:12.758Z,65.25
2019-05-25T19:34:56.629Z,65.75
2019-05-25T19:37:13.353Z,66.02
2019-05-25T19:39:43.371Z,66.47
2019-05-25T19:42:12.627Z,66.60
2019-05-25T19:44:41.854Z,66.92
2019-05-25T19:47:11.124Z,66.56
2019-05-25T19:49:40.339Z,66.25
2019-05-25T19:52:09.582Z,66.30
2019-05-25T19:54:38.807Z,66.77
2019-05-25T19:57:08.079Z,66.62
2019-05-25T19:59:37.287Z,66.63
2019-05-25T20:02:06.566Z,66.25
2019-05-25T20:04:36.111Z,66.44
2019-05-25T20:07:05.375Z,66.29
2019-05-25T20:09:35.347Z,65.85
2019-05-25T20:12:04.773Z,65.76
2019-05-25T20:14:34.389Z,65.70
2019-05-25T20:17:03.666Z,65.39
2019-05-25T20:19:32.891Z,65.08
2019-05-25T20:22:02.161Z,65.67
2019-05-25T20:24:31.766Z,64.94
2019-05-25T20:27:01.795Z,64.99
2019-05-25T20:29:32.579Z,65.15
2019-05-25T20:32:01.810Z,65.03
2019-05-25T20:34:31.071Z,64.58
2019-05-25T20:37:00.275Z,64.93
2019-05-25T20:39:29.524Z,65.87
2019-05-25T20:41:58.715Z,66.24
2019-05-25T20:44:27.972Z,66.51
2019-05-25T20:46:57.171Z,66.18
2019-05-25T20:49:26.443Z,67.26
2019-05-25T20:54:43.908Z,66.71
2019-05-25T20:57:13.448Z,66.71
2019-05-25T21:00:02.044Z,66.15
2019-05-25T21:02:31.454Z,66.43
2019-05-25T21:05:00.714Z,66.49
2019-05-25T21:07:29.924Z,66.87
2019-05-25T21:09:59.553Z,66.77
2019-05-25T21:12:28.777Z,67.13
2019-05-25T21:14:58.029Z,67.03
2019-05-25T21:17:27.590Z,66.91
2019-05-25T21:19:56.837Z,66.92
2019-05-25T21:22:26.431Z,66.59
2019-05-25T21:24:56.020Z,67.02
2019-05-25T21:27:25.377Z,67.01
2019-05-25T21:29:55.031Z,66.74
2019-05-25T21:32:24.240Z,67.31
2019-05-25T21:34:53.690Z,67.29
2019-05-25T21:37:23.346Z,67.70
2019-05-25T21:39:52.554Z,67.32
2019-05-25T21:42:21.789Z,67.02
2019-05-25T21:44:51.044Z,67.38
2019-05-25T21:47:20.752Z,67.47
2019-05-25T21:49:49.951Z,67.60
2019-05-25T21:52:19.503Z,67.68
2019-05-25T21:54:48.707Z,67.23
2019-05-25T21:57:37.216Z,67.37
2019-05-25T22:03:17.025Z,67.28
2019-05-25T22:05:46.286Z,67.16
2019-05-25T22:08:15.550Z,67.73
2019-05-25T22:13:57.950Z,67.52
2019-05-25T22:16:27.133Z,67.77
2019-05-25T22:18:56.689Z,67.69
2019-05-25T22:21:26.199Z,67.65
2019-05-25T22:23:55.811Z,67.55
2019-05-25T22:26:25.312Z,67.71
2019-05-25T22:28:54.591Z,68.07
2019-05-25T22:31:24.115Z,68.09
2019-05-25T22:33:53.377Z,67.62
2019-05-25T22:36:22.590Z,68.04
2019-05-25T22:38:51.824Z,68.51
2019-05-25T22:41:21.445Z,68.17
2019-05-25T22:43:50.710Z,68.35
2019-05-25T22:46:20.945Z,69.04
2019-05-25T22:48:50.565Z,68.92
2019-05-25T22:51:20.154Z,68.75
2019-05-25T22:53:49.359Z,69.05
2019-05-25T22:56:18.618Z,69.30
2019-05-25T22:58:47.823Z,69.47
2019-05-25T23:01:17.500Z,69.65
2019-05-25T23:03:46.693Z,69.62
2019-05-25T23:06:16.574Z,69.32
2019-05-25T23:08:45.774Z,69.51
2019-05-25T23:11:15.063Z,69.33
2019-05-25T23:13:44.251Z,69.75
2019-05-25T23:16:14.480Z,69.49
2019-05-25T23:18:44.412Z,70.16
2019-05-25T23:21:14.034Z,70.29
2019-05-25T23:23:43.517Z,70.05
2019-05-25T23:26:12.758Z,70.56
2019-05-25T23:28:42.320Z,71.45
2019-05-25T23:31:11.566Z,71.85
2019-05-25T23:33:40.785Z,72.35
2019-05-25T23:36:10.320Z,72.08
2019-05-25T23:38:39.520Z,71.36
2019-05-25T23:41:08.779Z,71.61
2019-05-25T23:43:38.325Z,71.32
2019-05-25T23:46:07.587Z,71.11
2019-05-25T23:48:36.820Z,71.55
2019-05-25T23:51:06.428Z,71.57
2019-05-25T23:53:35.933Z,71.65
2019-05-25T23:56:05.438Z,71.88
2019-05-25T23:58:34.731Z,72.08
